createdAt,value
2022-08-22T00:02:53.534Z,99720.59
2022-08-22T00:02:56.067Z,99720.56
2022-08-22T00:03:06.551Z,99737.88
2022-08-22T00:03:15.813Z,99730.94
2022-08-22T00:06:06.305Z,99737.00
2022-08-22T00:08:57.360Z,99732.72
2022-08-22T00:11:49.825Z,99742.91
2022-08-22T00:14:38.870Z,99734.06
2022-08-22T00:17:36.505Z,99737.94
2022-08-22T00:20:17.200Z,99740.97
2022-08-22T00:22:58.985Z,99740.28
2022-08-22T00:25:51.069Z,99741.97
2022-08-22T00:28:32.528Z,99744.84
2022-08-22T00:31:19.918Z,99745.03
2022-08-22T00:34:01.781Z,99741.75
2022-08-22T00:36:40.931Z,99737.50
2022-08-22T00:39:21.584Z,99744.09
2022-08-22T00:42:32.383Z,99734.22
2022-08-22T00:45:43.920Z,99741.53
2022-08-22T00:48:35.974Z,99744.56
2022-08-22T00:51:40.988Z,99742.84
2022-08-22T00:54:32.345Z,99735.34
2022-08-22T00:57:44.540Z,99745.03
2022-08-22T01:00:28.282Z,99745.66
2022-08-22T01:03:21.324Z,99740.22
2022-08-22T01:06:11.667Z,99751.25
2022-08-22T01:09:00.170Z,99748.53
2022-08-22T01:12:16.846Z,99750.25
2022-08-22T01:15:00.049Z,99751.56
2022-08-22T01:18:03.838Z,99751.97
2022-08-22T01:21:24.198Z,99755.38
2022-08-22T01:25:05.971Z,99763.06
2022-08-22T01:28:07.594Z,99763.59
2022-08-22T01:31:29.978Z,99760.72
2022-08-22T01:34:40.205Z,99764.78
2022-08-22T01:37:58.666Z,99766.47
2022-08-22T01:41:06.426Z,99765.47
2022-08-22T01:44:10.814Z,99769.03
2022-08-22T01:46:59.907Z,99767.50
2022-08-22T01:49:41.274Z,99770.22
2022-08-22T01:52:22.353Z,99762.22
2022-08-22T01:55:02.965Z,99765.25
2022-08-22T01:57:51.437Z,99764.22
2022-08-22T02:00:35.064Z,99763.16
2022-08-22T02:03:25.191Z,99760.06
2022-08-22T02:06:08.632Z,99759.75
2022-08-22T02:08:54.972Z,99765.66
2022-08-22T02:11:41.823Z,99762.25
2022-08-22T02:14:30.211Z,99757.41
2022-08-22T02:17:15.990Z,99752.44
2022-08-22T02:19:59.461Z,99761.94
2022-08-22T02:22:57.061Z,99764.78
2022-08-22T02:25:36.263Z,99763.22
2022-08-22T02:28:13.986Z,99768.13
2022-08-22T02:30:54.438Z,99762.00
2022-08-22T02:33:50.001Z,99764.13
2022-08-22T02:36:37.799Z,99762.59
2022-08-22T02:39:26.410Z,99756.47
2022-08-22T02:42:08.143Z,99759.50
2022-08-22T02:44:49.654Z,99757.09
2022-08-22T02:47:33.274Z,99766.06
2022-08-22T02:50:13.090Z,99764.28
2022-08-22T02:53:06.680Z,99766.38
2022-08-22T02:55:54.090Z,99769.53
2022-08-22T02:58:38.782Z,99769.97
2022-08-22T03:01:36.982Z,99766.41
2022-08-22T03:04:37.455Z,99769.28
2022-08-22T03:07:24.537Z,99763.47
2022-08-22T03:10:04.913Z,99772.59
2022-08-22T03:12:56.965Z,99778.31
2022-08-22T03:15:38.022Z,99779.50
2022-08-22T03:18:27.127Z,99781.44
2022-08-22T03:21:20.463Z,99768.78
2022-08-22T03:24:02.662Z,99777.53
2022-08-22T03:26:46.406Z,99782.34
2022-08-22T03:29:26.191Z,99774.53
2022-08-22T03:32:12.896Z,99772.81
2022-08-22T03:34:59.175Z,99776.50
2022-08-22T03:37:42.866Z,99779.50
2022-08-22T03:40:24.908Z,99778.94
2022-08-22T03:43:27.174Z,99787.09
2022-08-22T03:46:42.682Z,99783.69
2022-08-22T03:50:15.164Z,99778.56
2022-08-22T03:53:30.181Z,99773.44
2022-08-22T03:57:06.652Z,99787.44
2022-08-22T04:00:19.758Z,99795.84
2022-08-22T04:03:30.785Z,99798.16
2022-08-22T04:06:39.191Z,99790.03
2022-08-22T04:09:55.058Z,99804.56
2022-08-22T04:12:59.172Z,99807.44
2022-08-22T04:15:57.386Z,99808.75
2022-08-22T04:19:15.467Z,99807.56
2022-08-22T04:22:15.276Z,99820.00
2022-08-22T04:25:02.645Z,99813.41
2022-08-22T04:27:45.124Z,99816.69
2022-08-22T04:30:31.585Z,99818.97
2022-08-22T04:33:15.038Z,99813.25
2022-08-22T04:36:02.841Z,99821.66
2022-08-22T04:38:42.970Z,99816.78
2022-08-22T04:41:22.210Z,99819.22
2022-08-22T04:44:00.774Z,99819.75
2022-08-22T04:46:47.492Z,99820.47
2022-08-22T04:49:28.148Z,99820.16
2022-08-22T04:52:18.531Z,99821.78
2022-08-22T04:55:04.650Z,99818.47
2022-08-22T04:58:00.003Z,99827.41
2022-08-22T05:00:51.803Z,99829.09
2022-08-22T05:03:28.917Z,99838.91
2022-08-22T05:06:06.266Z,99835.00
2022-08-22T05:08:46.146Z,99846.81
2022-08-22T05:11:29.676Z,99842.34
2022-08-22T05:14:08.454Z,99852.09
2022-08-22T05:16:47.392Z,99857.50
2022-08-22T05:19:31.684Z,99860.19
2022-08-22T05:22:08.048Z,99862.69
2022-08-22T05:24:49.096Z,99861.03
2022-08-22T05:27:26.522Z,99862.00
2022-08-22T05:30:03.525Z,99857.78
2022-08-22T05:32:46.897Z,99860.56
2022-08-22T05:35:26.981Z,99855.38
2022-08-22T05:38:01.419Z,99861.56
2022-08-22T05:40:40.675Z,99862.34
2022-08-22T05:43:14.567Z,99852.25
2022-08-22T05:45:49.459Z,99852.50
2022-08-22T05:48:31.775Z,99853.97
2022-08-22T05:51:16.268Z,99858.66
2022-08-22T05:54:04.426Z,99864.31
2022-08-22T05:56:44.018Z,99859.97
2022-08-22T05:59:24.978Z,99870.44
2022-08-22T06:02:07.409Z,99869.13
2022-08-22T06:04:50.241Z,99874.63
2022-08-22T06:07:29.504Z,99868.19
2022-08-22T06:10:21.297Z,99871.44
2022-08-22T06:13:11.365Z,99871.16
2022-08-22T06:15:53.147Z,99876.66
2022-08-22T06:18:29.443Z,99876.81
2022-08-22T06:21:06.120Z,99868.13
2022-08-22T06:23:45.879Z,99869.13
2022-08-22T06:26:21.550Z,99867.59
2022-08-22T06:29:00.957Z,99868.63
2022-08-22T06:31:37.987Z,99869.25
2022-08-22T06:34:15.430Z,99874.88
2022-08-22T06:36:51.576Z,99878.94
2022-08-22T06:39:28.280Z,99869.84
2022-08-22T06:42:05.929Z,99875.97
2022-08-22T06:44:45.733Z,99871.84
2022-08-22T06:47:23.744Z,99873.50
2022-08-22T06:50:03.179Z,99876.88
2022-08-22T06:52:54.908Z,99875.03
2022-08-22T06:55:31.440Z,99874.25
2022-08-22T06:58:07.699Z,99874.50
2022-08-22T07:00:51.106Z,99871.16
2022-08-22T07:03:42.354Z,99877.00
2022-08-22T07:06:18.763Z,99878.91
2022-08-22T07:08:57.794Z,99878.31
2022-08-22T07:11:34.328Z,99874.03
2022-08-22T07:14:11.406Z,99873.69
2022-08-22T07:16:50.015Z,99870.94
2022-08-22T07:19:26.517Z,99874.63
2022-08-22T07:22:11.246Z,99880.97
2022-08-22T07:24:49.612Z,99887.94
2022-08-22T07:27:32.340Z,99893.00
2022-08-22T07:30:10.852Z,99891.47
2022-08-22T07:32:55.485Z,99890.03
2022-08-22T07:35:37.589Z,99896.94
2022-08-22T07:38:27.507Z,99894.56
2022-08-22T07:41:11.580Z,99893.06
2022-08-22T07:43:50.531Z,99896.78
2022-08-22T07:46:33.275Z,99891.25
2022-08-22T07:49:16.660Z,99894.94
2022-08-22T07:51:54.339Z,99896.69
2022-08-22T07:54:39.332Z,99900.34
2022-08-22T07:57:17.589Z,99898.94
2022-08-22T07:59:55.108Z,99911.91
2022-08-22T08:02:29.983Z,99903.91
2022-08-22T08:05:05.643Z,99902.63
2022-08-22T08:07:44.854Z,99902.19
2022-08-22T08:10:24.564Z,99906.16
2022-08-22T08:13:04.294Z,99906.72
2022-08-22T08:15:40.244Z,99903.38
2022-08-22T08:18:22.218Z,99898.69
2022-08-22T08:21:02.240Z,99909.59
2022-08-22T08:23:41.634Z,99903.28
2022-08-22T08:26:18.649Z,99897.91
2022-08-22T08:28:54.512Z,99909.03
2022-08-22T08:31:32.897Z,99907.84
2022-08-22T08:34:10.624Z,99908.03
2022-08-22T08:36:52.712Z,99907.84
2022-08-22T08:39:35.305Z,99905.66
2022-08-22T08:43:03.480Z,99907.81
2022-08-22T08:46:19.912Z,99904.09
2022-08-22T08:49:29.676Z,99907.13
2022-08-22T08:52:32.496Z,99901.38
2022-08-22T08:55:22.571Z,99903.91
2022-08-22T08:58:10.147Z,99909.28
2022-08-22T09:00:57.591Z,99905.09
2022-08-22T09:04:04.341Z,99912.09
2022-08-22T09:06:59.342Z,99913.44
2022-08-22T09:09:52.724Z,99910.44
2022-08-22T09:13:11.794Z,99911.66
2022-08-22T09:19:12.979Z,99914.31
2022-08-22T09:22:14.197Z,99905.34
2022-08-22T09:25:23.633Z,99911.03
2022-08-22T09:28:02.715Z,99908.66
2022-08-22T09:30:54.491Z,99910.69
2022-08-22T09:33:39.603Z,99905.38
2022-08-22T09:36:21.086Z,99906.78
2022-08-22T09:38:59.909Z,99912.94
2022-08-22T09:41:47.123Z,99901.72
2022-08-22T09:44:39.673Z,99899.75
2022-08-22T09:47:24.933Z,99891.38
2022-08-22T09:50:12.638Z,99900.88
2022-08-22T09:53:01.998Z,99895.06
2022-08-22T09:55:45.846Z,99888.50
2022-08-22T09:58:28.385Z,99884.31
2022-08-22T10:01:09.682Z,99888.78
2022-08-22T10:04:20.031Z,99898.13
2022-08-22T10:07:00.780Z,99893.22
2022-08-22T10:09:47.597Z,99894.88
2022-08-22T10:12:36.215Z,99893.28
2022-08-22T10:15:22.471Z,99889.50
2022-08-22T10:18:12.371Z,99898.97
2022-08-22T10:20:57.658Z,99889.81
2022-08-22T10:23:38.712Z,99894.34
2022-08-22T10:26:22.996Z,99896.22
2022-08-22T10:29:28.514Z,99892.63
2022-08-22T10:32:17.076Z,99902.00
2022-08-22T10:34:56.699Z,99893.81
2022-08-22T10:37:36.744Z,99894.09
2022-08-22T10:40:17.979Z,99887.56
2022-08-22T10:42:55.342Z,99887.88
2022-08-22T10:45:37.297Z,99890.06
2022-08-22T10:48:41.157Z,99882.03
2022-08-22T10:51:24.800Z,99881.28
2022-08-22T10:54:20.043Z,99873.91
2022-08-22T10:57:03.802Z,99891.69
2022-08-22T10:59:46.081Z,99883.16
2022-08-22T11:02:45.926Z,99887.25
2022-08-22T11:05:31.218Z,99888.00
2022-08-22T11:08:37.187Z,99891.56
2022-08-22T11:11:21.856Z,99885.47
2022-08-22T11:14:16.584Z,99886.22
2022-08-22T11:16:59.794Z,99891.06
2022-08-22T11:19:55.780Z,99891.72
2022-08-22T11:22:36.723Z,99889.25
2022-08-22T11:25:35.837Z,99888.56
2022-08-22T11:28:30.690Z,99880.13
2022-08-22T11:31:16.448Z,99881.16
2022-08-22T11:33:56.721Z,99875.38
2022-08-22T11:36:38.345Z,99882.19
2022-08-22T11:39:25.189Z,99883.75
2022-08-22T11:42:06.985Z,99877.78
2022-08-22T11:44:50.141Z,99875.56
2022-08-22T11:47:28.991Z,99877.28
2022-08-22T11:50:13.906Z,99882.09
2022-08-22T11:53:20.098Z,99875.22
2022-08-22T11:56:12.348Z,99877.06
2022-08-22T11:58:56.594Z,99879.47
2022-08-22T12:01:39.004Z,99883.19
2022-08-22T12:04:21.622Z,99877.25
2022-08-22T12:07:03.200Z,99872.53
2022-08-22T12:09:50.853Z,99880.34
2022-08-22T12:12:53.118Z,99861.28
2022-08-22T12:15:33.861Z,99873.75
2022-08-22T12:18:41.681Z,99871.97
2022-08-22T12:21:38.769Z,99872.78
2022-08-22T12:24:32.469Z,99873.75
2022-08-22T12:27:48.292Z,99868.69
2022-08-22T12:30:38.053Z,99867.53
2022-08-22T12:33:37.631Z,99874.81
2022-08-22T12:36:51.199Z,99876.59
2022-08-22T12:39:44.302Z,99874.06
2022-08-22T12:42:47.395Z,99869.69
2022-08-22T12:45:47.358Z,99867.63
2022-08-22T12:48:41.819Z,99870.63
2022-08-22T12:51:31.610Z,99866.59
2022-08-22T12:54:44.803Z,99877.38
2022-08-22T12:57:28.887Z,99862.72
2022-08-22T13:00:26.797Z,99864.19
2022-08-22T13:03:09.685Z,99857.16
2022-08-22T13:05:56.248Z,99863.44
2022-08-22T13:08:37.293Z,99864.63
2022-08-22T13:11:23.364Z,99867.56
2022-08-22T13:14:00.596Z,99866.28
2022-08-22T13:16:39.133Z,99872.59
2022-08-22T13:19:24.006Z,99864.91
2022-08-22T13:22:05.425Z,99863.19
2022-08-22T13:24:52.529Z,99867.63
2022-08-22T13:27:33.788Z,99867.38
2022-08-22T13:30:18.645Z,99868.03
2022-08-22T13:32:54.566Z,99861.50
2022-08-22T13:35:37.286Z,99862.84
2022-08-22T13:38:25.622Z,99851.94
2022-08-22T13:41:03.408Z,99856.22
2022-08-22T13:43:55.948Z,99862.66
2022-08-22T13:46:31.529Z,99863.75
2022-08-22T13:49:13.638Z,99865.25
2022-08-22T13:51:58.459Z,99865.69
2022-08-22T13:54:58.997Z,99872.94
2022-08-22T13:57:38.125Z,99870.38
2022-08-22T14:00:56.523Z,99871.28
2022-08-22T14:03:41.138Z,99860.03
2022-08-22T14:06:35.506Z,99858.28
2022-08-22T14:09:29.462Z,99862.97
2022-08-22T14:12:12.541Z,99859.56
2022-08-22T14:14:52.384Z,99861.69
2022-08-22T14:17:32.224Z,99857.03
2022-08-22T14:20:13.215Z,99863.34
2022-08-22T14:23:12.285Z,99871.44
2022-08-22T14:25:49.187Z,99864.25
2022-08-22T14:28:27.439Z,99866.16
2022-08-22T14:31:08.214Z,99867.22
2022-08-22T14:33:48.366Z,99866.81
2022-08-22T14:36:27.339Z,99861.94
2022-08-22T14:39:08.437Z,99870.00
2022-08-22T14:41:56.602Z,99867.88
2022-08-22T14:44:39.538Z,99867.00
2022-08-22T14:47:32.589Z,99870.19
2022-08-22T14:50:40.343Z,99864.84
2022-08-22T14:53:26.631Z,99873.06
2022-08-22T14:56:04.631Z,99870.22
2022-08-22T14:58:51.141Z,99863.81
2022-08-22T15:01:26.514Z,99870.94
2022-08-22T15:04:07.382Z,99863.19
2022-08-22T15:06:48.273Z,99861.22
2022-08-22T15:09:36.571Z,99861.75
2022-08-22T15:12:25.446Z,99855.50
2022-08-22T15:15:04.719Z,99852.19
2022-08-22T15:17:44.067Z,99856.78
2022-08-22T15:20:35.268Z,99862.66
2022-08-22T15:23:20.903Z,99861.59
2022-08-22T15:26:02.066Z,99857.06
2022-08-22T15:28:52.655Z,99855.13
2022-08-22T15:31:28.852Z,99845.31
2022-08-22T15:34:14.026Z,99855.38
2022-08-22T15:37:08.471Z,99855.78
2022-08-22T15:40:11.999Z,99845.00
2022-08-22T15:42:48.838Z,99839.59
2022-08-22T15:45:34.020Z,99839.72
2022-08-22T15:48:27.429Z,99843.91
2022-08-22T15:51:09.912Z,99845.53
2022-08-22T15:54:16.386Z,99843.63
2022-08-22T15:57:16.641Z,99839.53
2022-08-22T15:59:57.820Z,99836.03
2022-08-22T16:02:35.718Z,99827.53
2022-08-22T16:05:29.077Z,99835.75
2022-08-22T16:08:06.241Z,99836.72
2022-08-22T16:10:42.874Z,99837.50
2022-08-22T16:13:38.166Z,99843.34
2022-08-22T16:16:35.541Z,99843.06
2022-08-22T16:19:19.750Z,99832.66
2022-08-22T16:22:12.382Z,99833.22
2022-08-22T16:25:10.843Z,99840.72
2022-08-22T16:27:58.888Z,99851.41
2022-08-22T16:30:36.472Z,99848.28
2022-08-22T16:33:18.294Z,99846.47
2022-08-22T16:36:43.089Z,99855.75
2022-08-22T16:39:38.720Z,99864.06
2022-08-22T16:42:35.423Z,99873.66
2022-08-22T16:45:16.788Z,99871.81
2022-08-22T16:47:56.711Z,99873.06
2022-08-22T16:50:37.368Z,99871.16
2022-08-22T16:53:33.297Z,99883.34
2022-08-22T16:56:25.131Z,99882.50
2022-08-22T16:59:23.724Z,99879.28
2022-08-22T17:02:16.509Z,99878.78
2022-08-22T17:05:04.439Z,99883.97
2022-08-22T17:07:51.926Z,99889.34
2022-08-22T17:10:43.418Z,99898.28
2022-08-22T17:13:27.688Z,99906.00
2022-08-22T17:16:14.440Z,99903.16
2022-08-22T17:19:00.665Z,99911.06
2022-08-22T17:21:41.693Z,99921.69
2022-08-22T17:24:35.226Z,99915.06
2022-08-22T17:27:18.800Z,99910.81
2022-08-22T17:30:03.151Z,99919.38
2022-08-22T17:32:59.865Z,99918.03
2022-08-22T17:35:45.643Z,99914.09
2022-08-22T17:38:32.524Z,99919.28
2022-08-22T17:41:18.751Z,99923.75
2022-08-22T17:44:00.811Z,99921.38
2022-08-22T17:46:46.001Z,99926.34
2022-08-22T17:49:49.715Z,99920.22
2022-08-22T17:52:31.319Z,99923.00
2022-08-22T17:55:15.724Z,99926.44
2022-08-22T17:57:53.296Z,99918.59
2022-08-22T18:00:31.516Z,99926.13
2022-08-22T18:03:14.484Z,99934.50
2022-08-22T18:05:52.702Z,99920.13
2022-08-22T18:09:13.349Z,99930.59
2022-08-22T18:11:38.816Z,99930.09
2022-08-22T18:14:26.043Z,99934.19
2022-08-22T18:17:01.130Z,99940.19
2022-08-22T18:19:52.828Z,99944.97
2022-08-22T18:22:31.859Z,99940.88
2022-08-22T18:25:12.381Z,99940.19
2022-08-22T18:27:52.351Z,99940.53
2022-08-22T18:30:30.704Z,99935.41
2022-08-22T18:33:13.277Z,99939.03
2022-08-22T18:35:54.732Z,99950.13
2022-08-22T18:38:33.587Z,99945.00
2022-08-22T18:41:14.702Z,99951.66
2022-08-22T18:43:50.034Z,99956.63
2022-08-22T18:46:42.688Z,99946.53
2022-08-22T18:49:48.425Z,99944.84
2022-08-22T18:52:35.558Z,99945.38
2022-08-22T18:55:45.053Z,99945.53
2022-08-22T18:58:52.535Z,99948.78
2022-08-22T19:01:51.054Z,99945.75
2022-08-22T19:04:46.203Z,99945.22
2022-08-22T19:07:51.219Z,99943.16
2022-08-22T19:10:35.615Z,99933.97
2022-08-22T19:13:26.893Z,99933.66
2022-08-22T19:16:15.557Z,99934.16
2022-08-22T19:18:55.916Z,99937.56
2022-08-22T19:21:48.688Z,99942.66
2022-08-22T19:24:58.407Z,99945.56
2022-08-22T19:27:34.634Z,99949.13
2022-08-22T19:30:29.440Z,99953.22
2022-08-22T19:33:06.901Z,99946.56
2022-08-22T19:36:06.801Z,99948.63
2022-08-22T19:39:00.164Z,99952.03
2022-08-22T19:41:52.717Z,99950.81
2022-08-22T19:44:40.092Z,99944.16
2022-08-22T19:47:32.801Z,99943.63
2022-08-22T19:50:14.877Z,99948.06
2022-08-22T19:53:05.220Z,99942.94
2022-08-22T19:56:05.847Z,99949.56
2022-08-22T19:58:56.165Z,99947.66
2022-08-22T20:01:56.464Z,99952.59
2022-08-22T20:04:57.443Z,99949.16
2022-08-22T20:07:43.792Z,99948.97
2022-08-22T20:10:28.343Z,99949.16
2022-08-22T20:13:07.623Z,99939.75
2022-08-22T20:16:04.759Z,99937.91
2022-08-22T20:19:06.683Z,99934.63
2022-08-22T20:21:55.053Z,99933.25
2022-08-22T20:24:39.991Z,99929.16
2022-08-22T20:27:16.510Z,99930.50
2022-08-22T20:29:55.891Z,99925.22
2022-08-22T20:32:31.629Z,99936.44
2022-08-22T20:35:07.795Z,99927.03
2022-08-22T20:38:05.685Z,99926.38
2022-08-22T20:40:57.027Z,99932.31
2022-08-22T20:43:36.816Z,99933.47
2022-08-22T20:46:27.557Z,99935.50
2022-08-22T20:49:02.227Z,99931.72
2022-08-22T20:51:37.273Z,99928.47
2022-08-22T20:54:19.930Z,99934.06
2022-08-22T20:56:55.990Z,99924.53
2022-08-22T20:59:40.214Z,99922.31
2022-08-22T21:02:20.362Z,99925.47
2022-08-22T21:05:00.802Z,99927.50
2022-08-22T21:07:40.301Z,99926.97
2022-08-22T21:10:37.266Z,99913.50
2022-08-22T21:13:12.998Z,99913.97
2022-08-22T21:15:50.227Z,99908.88
2022-08-22T21:18:33.137Z,99910.06
2022-08-22T21:21:09.936Z,99908.50
2022-08-22T21:23:59.934Z,99904.41
2022-08-22T21:26:40.863Z,99910.00
2022-08-22T21:29:23.610Z,99896.56
2022-08-22T21:32:04.589Z,99895.00
2022-08-22T21:34:43.457Z,99899.91
2022-08-22T21:37:19.514Z,99904.09
2022-08-22T21:40:01.561Z,99902.56
2022-08-22T21:42:38.717Z,99913.94
2022-08-22T21:45:26.451Z,99920.69
2022-08-22T21:48:00.486Z,99928.16
2022-08-22T21:50:38.581Z,99926.44
2022-08-22T21:53:28.742Z,99921.16
2022-08-22T21:56:14.831Z,99922.03
2022-08-22T21:58:49.621Z,99928.09
2022-08-22T22:01:31.485Z,99917.53
2022-08-22T22:04:07.971Z,99930.28
2022-08-22T22:06:41.861Z,99921.56
2022-08-22T22:09:15.671Z,99915.44
2022-08-22T22:11:53.603Z,99912.19
2022-08-22T22:14:30.699Z,99921.63
2022-08-22T22:17:04.370Z,99924.66
2022-08-22T22:19:41.917Z,99917.84
2022-08-22T22:22:15.811Z,99921.72
2022-08-22T22:24:52.093Z,99916.59
2022-08-22T22:27:30.880Z,99910.91
2022-08-22T22:30:05.319Z,99909.19
2022-08-22T22:32:43.195Z,99907.81
2022-08-22T22:35:20.963Z,99897.09
2022-08-22T22:37:54.614Z,99893.84
2022-08-22T22:40:28.397Z,99879.53
2022-08-22T22:43:04.039Z,99879.84
2022-08-22T22:45:39.952Z,99878.47
2022-08-22T22:48:23.826Z,99880.44
2022-08-22T22:50:59.587Z,99879.91
2022-08-22T22:53:40.132Z,99872.22
2022-08-22T22:56:16.561Z,99865.41
2022-08-22T22:58:59.289Z,99853.97
2022-08-22T23:01:38.223Z,99857.84
2022-08-22T23:04:16.706Z,99862.59
2022-08-22T23:06:50.303Z,99866.63
2022-08-22T23:09:37.994Z,99862.50
2022-08-22T23:12:17.932Z,99869.09
2022-08-22T23:14:57.312Z,99870.41
2022-08-22T23:17:31.037Z,99871.69
2022-08-22T23:20:05.836Z,99870.28
2022-08-22T23:22:41.678Z,99872.16
2022-08-22T23:25:15.415Z,99873.31
2022-08-22T23:27:52.572Z,99872.75
2022-08-22T23:30:27.724Z,99868.47
2022-08-22T23:33:03.989Z,99875.91
2022-08-22T23:35:37.616Z,99868.78
2022-08-22T23:38:11.821Z,99876.38
2022-08-22T23:40:48.229Z,99879.09
2022-08-22T23:43:22.010Z,99877.66
2022-08-22T23:45:57.033Z,99884.13
2022-08-22T23:48:33.353Z,99884.28
2022-08-22T23:51:07.853Z,99883.56
2022-08-22T23:53:41.787Z,99889.16
2022-08-22T23:56:19.755Z,99892.03
2022-08-22T23:58:53.675Z,99883.00
